Portada
METAR-TAF:

METAR-TAF

Aeropuertos :

Castres, Francia

latitud: 43-33-25N, longitud: 2-17-21E, altitud: 239 m

Observación

El informe se hizo hace 22 minutos, a las 11:00 UTC
Viento 25 kt del este-sureste
Temperatura 16°C
Humedad 68%
Presión 1016 hPa
Visibilidad 10 km o más
sin nubes por debajo de 1500 m y sin presencia de cumulonimbus.

METAR: LFCK 231100Z AUTO 12025KT CAVOK 16/10 Q1016 TEMPO 12030G40KT

Hora: 12:22 (11:22 UTC)

Pronóstico

El informe se hizo hace 3 horas y 22 minutos, a las 08:00 UTC
Pronóstico válido del 23 a las 09 UTC al 23 a las 18 UTC
Viento 20 kt del este-sureste con ráfagas de 30 kt
Visibilidad 10 km o más
sin nubes por debajo de 1500 m y sin presencia de cumulonimbus.
Temporalmente
del 23 a las 09 UTC al 23 a las 15 UTC
Viento 30 kt del este-sureste con ráfagas de 40 kt

TAF: LFCK 230800Z 2309/2318 12020G30KT CAVOK TEMPO 2309/2315 12030G40KT

Observaciones y pronósticos meteorológicos de más de 4000 aeropuertos (mensajes METAR y TAF).

Los puntos amarillos y rojos representan las estaciones disponibles.

Ponga el ratón en el punto deseado para ver el nombre de la estación.

Haga clic para ver las observaciones y los pronósticos meteorológicos.

Para cambiar el mapa : haga clic en los botones verdes con una cruz de color negro para hacer un zoom, en el botón verde con un guión para alejar o en las flechas verdes para mapas adyacentes.


METAR-TAF: